createdAt,value
2022-09-30T00:02:01.877Z,12.74
2022-09-30T00:07:05.118Z,12.75
2022-09-30T00:12:07.975Z,12.77
2022-09-30T00:17:10.803Z,12.83
2022-09-30T00:22:14.261Z,12.91
2022-09-30T00:27:18.386Z,12.97
2022-09-30T00:32:21.261Z,12.97
2022-09-30T00:37:24.137Z,12.98
2022-09-30T00:42:29.672Z,12.97
2022-09-30T00:47:48.674Z,12.94
2022-09-30T00:53:03.484Z,12.89
2022-09-30T00:58:09.921Z,12.88
2022-09-30T01:03:13.105Z,12.95
2022-09-30T01:08:18.535Z,13.02
2022-09-30T01:13:26.453Z,13.07
2022-09-30T01:18:53.838Z,13.11
2022-09-30T01:24:02.926Z,13.15
2022-09-30T01:29:14.339Z,13.14
2022-09-30T01:34:37.541Z,13.11
2022-09-30T01:39:43.354Z,13.09
2022-09-30T01:45:09.780Z,13.11
2022-09-30T01:50:35.275Z,13.19
2022-09-30T01:55:53.767Z,13.24
2022-09-30T02:01:01.313Z,13.25
2022-09-30T02:06:08.918Z,13.24
2022-09-30T02:11:24.125Z,13.23
2022-09-30T02:16:35.711Z,13.21
2022-09-30T02:21:42.303Z,13.19
2022-09-30T02:26:49.397Z,13.23
2022-09-30T02:31:56.420Z,13.31
2022-09-30T02:37:25.646Z,13.36
2022-09-30T02:42:30.576Z,13.38
2022-09-30T02:47:54.515Z,13.36
2022-09-30T02:53:00.177Z,13.35
2022-09-30T02:58:15.381Z,13.35
2022-09-30T03:03:33.074Z,13.40
2022-09-30T03:08:36.121Z,13.47
2022-09-30T03:14:14.283Z,13.51
2022-09-30T03:19:34.979Z,13.53
2022-09-30T03:25:09.412Z,13.50
2022-09-30T03:30:22.137Z,13.49
2022-09-30T03:35:38.014Z,13.47
2022-09-30T03:41:00.093Z,13.50
2022-09-30T03:46:11.877Z,13.55
2022-09-30T03:51:15.346Z,13.57
2022-09-30T03:56:26.246Z,13.57
2022-09-30T04:01:29.427Z,13.54
2022-09-30T04:06:32.287Z,13.51
2022-09-30T04:11:35.303Z,13.51
2022-09-30T04:16:38.237Z,13.53
2022-09-30T04:21:41.239Z,13.56
2022-09-30T04:26:44.033Z,13.57
2022-09-30T04:31:47.160Z,13.56
2022-09-30T04:36:50.089Z,13.55
2022-09-30T04:41:54.081Z,13.53
2022-09-30T04:46:57.364Z,13.51
2022-09-30T04:52:00.379Z,13.52
2022-09-30T04:57:03.473Z,13.58
2022-09-30T05:02:06.582Z,13.66
2022-09-30T05:07:09.420Z,13.78
2022-09-30T05:12:12.741Z,13.78
2022-09-30T05:17:15.608Z,13.75
2022-09-30T05:22:18.675Z,13.70
2022-09-30T05:27:22.844Z,13.72
2022-09-30T05:32:32.931Z,13.75
2022-09-30T05:37:35.751Z,13.77
2022-09-30T05:42:38.694Z,13.76
2022-09-30T05:47:42.332Z,13.75
2022-09-30T05:52:45.260Z,13.80
2022-09-30T05:57:49.756Z,13.82
2022-09-30T06:02:52.790Z,13.85
2022-09-30T06:07:55.682Z,13.90
2022-09-30T06:12:59.272Z,13.93
2022-09-30T06:18:02.699Z,13.96
2022-09-30T06:23:05.529Z,13.99
2022-09-30T06:28:08.424Z,14.01
2022-09-30T06:33:11.542Z,14.06
2022-09-30T06:38:18.521Z,14.17
2022-09-30T06:43:21.372Z,14.22
2022-09-30T06:48:35.583Z,14.22
2022-09-30T06:53:41.614Z,14.20
2022-09-30T06:58:47.639Z,14.17
2022-09-30T07:03:58.057Z,14.13
2022-09-30T07:09:01.044Z,14.16
2022-09-30T07:14:06.237Z,14.24
2022-09-30T07:19:11.424Z,14.30
2022-09-30T07:24:15.133Z,14.31
2022-09-30T07:29:18.489Z,14.29
2022-09-30T07:34:22.211Z,14.27
2022-09-30T07:39:25.072Z,14.26
2022-09-30T07:44:29.502Z,14.29
2022-09-30T07:49:32.635Z,14.31
2022-09-30T07:54:41.314Z,14.32
2022-09-30T07:59:45.473Z,14.31
2022-09-30T08:04:48.479Z,14.33
2022-09-30T08:09:51.540Z,14.38
2022-09-30T08:14:54.416Z,14.47
2022-09-30T08:19:57.299Z,14.52
2022-09-30T08:25:00.326Z,14.53
2022-09-30T08:30:05.219Z,14.52
2022-09-30T08:35:09.044Z,14.50
2022-09-30T08:40:28.645Z,14.49
2022-09-30T08:45:41.069Z,14.52
2022-09-30T08:51:06.107Z,14.57
2022-09-30T08:56:17.867Z,14.60
2022-09-30T09:01:27.446Z,14.61
2022-09-30T09:07:10.009Z,14.61
2022-09-30T09:12:37.139Z,14.58
2022-09-30T09:18:21.531Z,14.63
2022-09-30T09:23:19.349Z,14.67
2022-09-30T09:28:30.986Z,14.68
2022-09-30T09:33:39.819Z,14.74
2022-09-30T09:39:13.650Z,14.75
2022-09-30T09:44:56.675Z,14.71
2022-09-30T09:50:04.391Z,14.71
2022-09-30T09:55:09.681Z,14.72
2022-09-30T10:00:43.036Z,14.72
2022-09-30T10:06:00.741Z,14.74
2022-09-30T10:11:25.607Z,14.77
2022-09-30T10:16:32.309Z,14.81
2022-09-30T10:21:35.276Z,14.85
2022-09-30T10:26:47.830Z,14.85
2022-09-30T10:31:58.968Z,14.84
2022-09-30T10:37:10.713Z,14.81
2022-09-30T10:42:26.370Z,14.79
2022-09-30T10:47:36.251Z,14.81
2022-09-30T10:52:50.599Z,14.85
2022-09-30T10:57:55.030Z,14.88
2022-09-30T11:03:00.428Z,14.90
2022-09-30T11:08:09.434Z,14.91
2022-09-30T11:13:30.784Z,14.95
2022-09-30T11:18:54.413Z,14.99
2022-09-30T11:24:03.021Z,15.03
2022-09-30T11:29:14.126Z,15.09
2022-09-30T11:34:36.909Z,15.17
2022-09-30T11:40:22.901Z,15.20
2022-09-30T11:45:54.159Z,15.21
2022-09-30T11:51:15.438Z,15.24
2022-09-30T11:56:46.927Z,15.26
2022-09-30T12:01:53.235Z,15.34
2022-09-30T12:07:04.290Z,15.38
2022-09-30T12:12:16.032Z,15.43
2022-09-30T12:17:33.655Z,15.46
2022-09-30T12:22:44.225Z,15.44
2022-09-30T12:27:56.753Z,15.44
2022-09-30T12:33:11.425Z,15.45
2022-09-30T12:38:44.984Z,15.47
2022-09-30T12:44:00.844Z,15.48
2022-09-30T12:49:06.553Z,15.45
2022-09-30T12:54:29.094Z,15.40
2022-09-30T12:59:36.621Z,15.36
2022-09-30T13:04:43.094Z,15.41
2022-09-30T13:10:01.127Z,15.48
2022-09-30T13:15:42.557Z,15.54
2022-09-30T13:20:57.574Z,15.59
2022-09-30T13:26:02.225Z,15.60
2022-09-30T13:31:24.984Z,15.60
2022-09-30T13:36:41.386Z,15.63
2022-09-30T13:41:48.508Z,15.66
2022-09-30T13:46:56.980Z,15.78
2022-09-30T13:52:01.142Z,15.76
2022-09-30T13:57:05.821Z,15.72
2022-09-30T14:02:40.497Z,15.68
2022-09-30T14:08:12.635Z,15.70
2022-09-30T14:13:52.888Z,15.77
2022-09-30T14:19:14.126Z,15.81
2022-09-30T14:24:24.197Z,15.85
2022-09-30T14:29:46.819Z,15.86
2022-09-30T14:34:49.969Z,15.79
2022-09-30T14:39:55.511Z,15.82
2022-09-30T14:45:04.729Z,15.83
2022-09-30T14:50:20.783Z,15.80
2022-09-30T14:55:28.856Z,15.77
2022-09-30T15:00:32.154Z,15.68
2022-09-30T15:05:36.641Z,15.58
2022-09-30T15:10:47.568Z,15.56
2022-09-30T15:15:51.014Z,15.58
2022-09-30T15:21:00.347Z,15.60
2022-09-30T15:26:04.120Z,15.61
2022-09-30T15:31:15.996Z,15.59
2022-09-30T15:36:19.160Z,15.54
2022-09-30T15:41:22.522Z,15.56
2022-09-30T15:46:38.715Z,15.61
2022-09-30T15:51:43.525Z,15.62
2022-09-30T15:56:46.617Z,15.60
2022-09-30T16:01:52.405Z,15.58
2022-09-30T16:07:10.032Z,15.54
2022-09-30T16:12:12.888Z,15.55
2022-09-30T16:17:34.543Z,15.57
2022-09-30T16:22:40.478Z,15.57
2022-09-30T16:27:43.761Z,15.55
2022-09-30T16:32:51.897Z,15.50
2022-09-30T16:38:03.236Z,15.44
2022-09-30T16:43:07.911Z,15.46
2022-09-30T16:48:18.947Z,15.46
2022-09-30T16:53:22.160Z,15.43
2022-09-30T16:58:25.346Z,15.40
2022-09-30T17:03:28.381Z,15.37
2022-09-30T17:08:31.608Z,15.38
2022-09-30T17:13:35.289Z,15.37
2022-09-30T17:18:38.548Z,15.38
2022-09-30T17:23:41.522Z,15.37
2022-09-30T17:28:45.231Z,15.37
2022-09-30T17:33:50.063Z,15.33
2022-09-30T17:38:54.727Z,15.26
2022-09-30T17:44:02.627Z,15.24
2022-09-30T17:49:09.958Z,15.26
2022-09-30T17:54:18.851Z,15.25
2022-09-30T17:59:22.228Z,15.22
2022-09-30T18:04:26.240Z,15.15
2022-09-30T18:09:29.333Z,15.12
2022-09-30T18:14:38.476Z,15.13
2022-09-30T18:19:41.716Z,15.14
2022-09-30T18:25:07.245Z,15.11
2022-09-30T18:30:13.913Z,15.07
2022-09-30T18:35:20.193Z,15.03
2022-09-30T18:40:26.168Z,14.98
2022-09-30T18:45:31.594Z,14.97
2022-09-30T18:50:34.792Z,14.98
2022-09-30T18:55:38.637Z,15.01
2022-09-30T19:00:42.186Z,15.00
2022-09-30T19:05:45.187Z,14.97
2022-09-30T19:10:48.299Z,14.92
2022-09-30T19:15:51.144Z,14.92
2022-09-30T19:20:54.485Z,14.95
2022-09-30T19:25:58.789Z,14.94
2022-09-30T19:31:17.361Z,14.92
2022-09-30T19:36:21.430Z,14.88
2022-09-30T19:41:27.834Z,14.85
2022-09-30T19:46:35.018Z,14.86
2022-09-30T19:51:39.376Z,14.88
2022-09-30T19:56:43.331Z,14.87
2022-09-30T20:01:48.047Z,14.93
2022-09-30T20:06:54.426Z,14.94
2022-09-30T20:11:58.528Z,14.86
2022-09-30T20:17:03.133Z,14.77
2022-09-30T20:22:06.995Z,14.72
2022-09-30T20:27:12.979Z,14.72
2022-09-30T20:32:17.711Z,14.74
2022-09-30T20:37:22.863Z,14.77
2022-09-30T20:42:30.950Z,14.74
2022-09-30T20:47:37.342Z,14.66
2022-09-30T20:52:41.350Z,14.60
2022-09-30T20:57:45.131Z,14.60
2022-09-30T21:02:53.191Z,14.61
2022-09-30T21:07:57.919Z,14.62
2022-09-30T21:13:02.990Z,14.63
2022-09-30T21:18:07.840Z,14.62
2022-09-30T21:23:13.425Z,14.58
2022-09-30T21:28:19.873Z,14.60
2022-09-30T21:33:26.515Z,14.65
2022-09-30T21:38:32.136Z,14.69
2022-09-30T21:43:37.634Z,14.68
2022-09-30T21:48:43.045Z,14.64
2022-09-30T21:53:49.600Z,14.61
2022-09-30T21:58:53.206Z,14.65
2022-09-30T22:03:56.979Z,14.71
2022-09-30T22:09:02.242Z,14.73
2022-09-30T22:14:06.931Z,14.75
2022-09-30T22:19:13.720Z,14.76
2022-09-30T22:24:17.694Z,14.75
2022-09-30T22:29:21.567Z,14.77
2022-09-30T22:34:43.927Z,14.77
2022-09-30T22:39:48.770Z,14.77
2022-09-30T22:44:53.368Z,14.76
2022-09-30T22:49:57.813Z,14.76
2022-09-30T22:55:04.184Z,14.71
2022-09-30T23:00:08.405Z,14.69
2022-09-30T23:05:11.379Z,14.70
2022-09-30T23:10:21.280Z,14.69
2022-09-30T23:15:24.115Z,14.71
2022-09-30T23:20:27.088Z,14.68
2022-09-30T23:25:31.678Z,14.68
2022-09-30T23:30:35.300Z,14.74
2022-09-30T23:35:38.170Z,14.80
2022-09-30T23:40:48.536Z,14.85
2022-09-30T23:45:51.526Z,14.84
2022-09-30T23:50:54.694Z,14.84
2022-09-30T23:56:02.953Z,14.82
